Clintonville, West Virginia
Current Conditions -  °F | °C
As of 7:55 PM on Tuesday 27 Jan 2015 (Local Time) from KLWB Reporting Station
Light Snow Light Snow  
Wind Chill:   Ceiling: 2600
Heat Index: 20°   Visibility: 10mi
Dew Point: 11°   Wind: 10mph
Humidity: 68%   Direction: 310°NW
Pressure: 29.97"   Gusts: NA
Location:  37.9616°N, 80.6134°W
Report Text: KLWB 280055Z AUTO 31009KT 10SM -SN SCT018 OVC026 M06/M12 A2997 RMK AO2 T10651116
Loading
Personal Weather Stations






























Interactive Weather Map New forecast layout! Learn more

10-Day Weather Forecast

Advertisements
Track Severe Weather on mobile